createdAt,value
2023-01-26T00:01:14.268Z,10.57
2023-01-26T00:03:41.345Z,10.32
2023-01-26T00:06:10.445Z,10.13
2023-01-26T00:08:38.487Z,10.75
2023-01-26T00:11:06.873Z,10.73
2023-01-26T00:13:34.187Z,10.23
2023-01-26T00:16:01.828Z,9.25
2023-01-26T00:18:28.843Z,10.20
2023-01-26T00:20:59.516Z,9.63
2023-01-26T00:23:27.872Z,9.23
2023-01-26T00:25:54.371Z,10.15
2023-01-26T00:28:21.355Z,10.35
2023-01-26T00:30:47.945Z,9.50
2023-01-26T00:33:14.920Z,9.75
2023-01-26T00:35:44.586Z,9.35
2023-01-26T00:38:12.224Z,9.80
2023-01-26T00:40:39.472Z,9.82
2023-01-26T00:43:06.372Z,9.52
2023-01-26T00:45:34.949Z,9.52
2023-01-26T00:48:01.683Z,9.55
2023-01-26T00:50:28.193Z,9.05
2023-01-26T00:52:54.819Z,9.32
2023-01-26T00:55:21.735Z,9.02
2023-01-26T00:57:50.011Z,9.52
2023-01-26T01:00:17.594Z,9.25
2023-01-26T01:02:44.623Z,9.10
2023-01-26T01:05:12.101Z,8.52
2023-01-26T01:07:38.628Z,9.52
2023-01-26T01:10:05.783Z,8.50
2023-01-26T01:12:32.296Z,8.88
2023-01-26T01:14:58.803Z,9.05
2023-01-26T01:17:25.896Z,8.48
2023-01-26T01:19:52.515Z,8.57
2023-01-26T01:22:19.036Z,8.18
2023-01-26T01:24:45.531Z,9.30
2023-01-26T01:27:12.063Z,8.35
2023-01-26T01:29:38.737Z,8.50
2023-01-26T01:32:05.249Z,8.35
2023-01-26T01:34:31.947Z,9.20
2023-01-26T01:36:58.441Z,8.77
2023-01-26T01:39:25.009Z,8.70
2023-01-26T01:41:51.486Z,8.77
2023-01-26T01:44:23.190Z,8.07
2023-01-26T01:46:52.977Z,8.73
2023-01-26T01:49:45.470Z,8.60
2023-01-26T01:52:30.153Z,8.82
2023-01-26T01:54:58.312Z,8.20
2023-01-26T01:57:29.210Z,8.48
2023-01-26T02:00:02.319Z,9.10
2023-01-26T02:02:29.114Z,8.27
2023-01-26T02:05:02.218Z,7.97
2023-01-26T02:07:30.337Z,8.07
2023-01-26T02:10:16.062Z,7.57
2023-01-26T02:12:42.716Z,8.30
2023-01-26T02:15:09.908Z,7.60
2023-01-26T02:17:36.771Z,8.38
2023-01-26T02:20:05.543Z,8.50
2023-01-26T02:23:07.115Z,8.18
2023-01-26T02:25:36.774Z,7.78
2023-01-26T02:28:03.397Z,8.27
2023-01-26T02:30:31.655Z,8.23
2023-01-26T02:32:58.712Z,7.80
2023-01-26T02:35:25.303Z,8.00
2023-01-26T02:37:51.828Z,7.90
2023-01-26T02:40:44.637Z,8.48
2023-01-26T02:43:11.659Z,7.63
2023-01-26T02:45:40.374Z,7.55
2023-01-26T02:48:08.031Z,8.18
2023-01-26T02:50:35.083Z,7.85
2023-01-26T02:53:03.811Z,7.80
2023-01-26T02:55:30.904Z,6.93
2023-01-26T02:58:00.390Z,7.40
2023-01-26T03:00:29.659Z,7.00
2023-01-26T03:02:59.424Z,7.70
2023-01-26T03:05:28.299Z,6.87
2023-01-26T03:07:55.381Z,7.20
2023-01-26T03:10:24.188Z,7.25
2023-01-26T03:12:50.743Z,7.60
2023-01-26T03:15:42.922Z,7.63
2023-01-26T03:18:33.674Z,7.05
2023-01-26T03:21:20.119Z,7.22
2023-01-26T03:24:05.658Z,7.18
2023-01-26T03:26:50.776Z,6.75
2023-01-26T03:29:17.326Z,6.85
2023-01-26T03:31:43.890Z,6.88
2023-01-26T03:34:10.437Z,6.97
2023-01-26T03:36:38.056Z,7.03
2023-01-26T03:39:05.041Z,6.30
2023-01-26T03:41:50.217Z,6.50
2023-01-26T03:44:35.062Z,6.47
2023-01-26T03:47:20.443Z,6.78
2023-01-26T03:50:05.400Z,6.53
2023-01-26T03:52:51.481Z,6.40
2023-01-26T03:55:36.439Z,6.85
2023-01-26T03:58:03.032Z,6.60
2023-01-26T04:00:29.651Z,6.22
2023-01-26T04:03:14.802Z,5.95
2023-01-26T04:06:15.808Z,6.22
2023-01-26T04:08:44.742Z,6.13
2023-01-26T04:11:11.302Z,6.10
2023-01-26T04:13:56.521Z,6.38
2023-01-26T04:16:42.029Z,6.75
2023-01-26T04:19:26.913Z,6.20
2023-01-26T04:21:53.442Z,6.60
2023-01-26T04:24:22.587Z,6.03
2023-01-26T04:26:49.217Z,5.90
2023-01-26T04:29:16.941Z,7.18
2023-01-26T04:31:43.902Z,6.60
2023-01-26T04:34:12.545Z,12.85
2023-01-26T04:36:39.790Z,5.70
2023-01-26T04:39:06.350Z,5.88
2023-01-26T04:41:33.228Z,5.80
2023-01-26T04:43:59.897Z,5.53
2023-01-26T04:46:26.575Z,5.47
2023-01-26T04:48:53.440Z,5.38
2023-01-26T04:51:21.689Z,5.88
2023-01-26T04:53:49.717Z,6.05
2023-01-26T04:56:24.336Z,5.78
2023-01-26T04:58:51.936Z,6.63
2023-01-26T05:01:19.158Z,6.05
2023-01-26T05:03:46.283Z,5.25
2023-01-26T05:06:13.470Z,5.60
2023-01-26T05:08:40.424Z,5.70
2023-01-26T05:11:07.122Z,6.10
2023-01-26T05:13:35.886Z,5.63
2023-01-26T05:16:03.337Z,4.75
2023-01-26T05:18:30.273Z,5.28
2023-01-26T05:20:57.815Z,5.20
2023-01-26T05:23:24.519Z,5.13
2023-01-26T05:25:51.023Z,5.32
2023-01-26T05:28:17.509Z,5.63
2023-01-26T05:30:44.035Z,5.05
2023-01-26T05:33:11.005Z,5.03
2023-01-26T05:35:37.509Z,5.28
2023-01-26T05:38:04.320Z,4.90
2023-01-26T05:40:31.011Z,5.57
2023-01-26T05:42:57.491Z,5.05
2023-01-26T05:45:24.158Z,5.15
2023-01-26T05:47:50.708Z,5.38
2023-01-26T05:50:17.573Z,5.30
2023-01-26T05:52:46.508Z,5.40
2023-01-26T05:55:13.592Z,5.97
2023-01-26T05:57:40.203Z,6.28
2023-01-26T06:00:08.087Z,6.25
2023-01-26T06:02:34.742Z,5.72
2023-01-26T06:05:01.291Z,5.82
2023-01-26T06:07:27.770Z,6.40
2023-01-26T06:09:54.550Z,6.38
2023-01-26T06:12:23.403Z,8.98
2023-01-26T06:14:49.920Z,7.50
2023-01-26T06:17:18.132Z,6.47
2023-01-26T06:19:44.881Z,6.88
2023-01-26T06:22:12.760Z,5.43
2023-01-26T06:24:39.299Z,6.75
2023-01-26T06:27:08.977Z,5.95
2023-01-26T06:29:35.447Z,5.90
2023-01-26T06:32:01.993Z,7.55
2023-01-26T06:34:28.636Z,5.18
2023-01-26T06:36:56.663Z,7.05
2023-01-26T06:39:23.213Z,5.05
2023-01-26T06:41:49.769Z,6.13
2023-01-26T06:44:16.309Z,5.47
2023-01-26T06:46:42.770Z,4.80
2023-01-26T06:49:09.669Z,5.68
2023-01-26T06:51:56.468Z,4.80
2023-01-26T06:54:23.047Z,6.10
2023-01-26T06:56:49.750Z,5.22
2023-01-26T06:59:16.527Z,6.63
2023-01-26T07:01:49.931Z,4.85
2023-01-26T07:04:17.045Z,4.43
2023-01-26T07:06:43.762Z,4.90
2023-01-26T07:09:11.083Z,4.85
2023-01-26T07:11:37.774Z,4.43
2023-01-26T07:14:04.309Z,4.65
2023-01-26T07:16:33.576Z,4.85
2023-01-26T07:19:00.334Z,5.22
2023-01-26T07:21:26.837Z,4.03
2023-01-26T07:23:54.140Z,4.18
2023-01-26T07:26:21.218Z,3.90
2023-01-26T07:28:48.087Z,5.05
2023-01-26T07:31:14.775Z,4.40
2023-01-26T07:33:41.504Z,4.25
2023-01-26T07:36:08.375Z,4.07
2023-01-26T07:38:34.875Z,4.50
2023-01-26T07:41:09.505Z,3.53
2023-01-26T07:43:38.070Z,4.10
2023-01-26T07:46:05.128Z,4.93
2023-01-26T07:48:32.173Z,3.30
2023-01-26T07:51:00.237Z,4.90
2023-01-26T07:53:29.227Z,3.92
2023-01-26T07:56:12.426Z,4.32
2023-01-26T07:58:39.621Z,4.05
2023-01-26T08:01:08.374Z,3.88
2023-01-26T08:03:35.482Z,3.60
2023-01-26T08:06:02.212Z,6.20
2023-01-26T08:08:28.942Z,3.92
2023-01-26T08:11:00.753Z,4.25
2023-01-26T08:13:35.393Z,5.85
2023-01-26T08:16:13.104Z,4.70
2023-01-26T08:18:45.414Z,6.50
2023-01-26T08:21:13.854Z,4.60
2023-01-26T08:23:41.158Z,3.17
2023-01-26T08:26:10.231Z,4.20
2023-01-26T08:28:37.240Z,3.75
2023-01-26T08:31:06.125Z,4.05
2023-01-26T08:33:33.802Z,4.10
2023-01-26T08:36:10.611Z,4.57
2023-01-26T08:38:37.331Z,4.50
2023-01-26T08:41:04.915Z,4.07
2023-01-26T08:43:31.707Z,3.65
2023-01-26T08:45:58.974Z,4.05
2023-01-26T08:48:25.666Z,4.47
2023-01-26T08:50:56.897Z,3.70
2023-01-26T08:53:24.247Z,3.95
2023-01-26T08:55:51.007Z,4.05
2023-01-26T08:58:18.420Z,3.17
2023-01-26T09:00:44.934Z,3.67
2023-01-26T09:03:12.228Z,3.15
2023-01-26T09:05:40.129Z,3.40
2023-01-26T09:08:09.212Z,3.25
2023-01-26T09:10:37.711Z,4.43
2023-01-26T09:13:04.190Z,2.85
2023-01-26T09:15:30.767Z,3.75
2023-01-26T09:17:59.775Z,3.72
2023-01-26T09:20:27.436Z,3.85
2023-01-26T09:22:54.659Z,3.53
2023-01-26T09:25:21.213Z,3.85
2023-01-26T09:27:47.672Z,2.50
2023-01-26T09:30:14.548Z,4.25
2023-01-26T09:32:41.247Z,3.15
2023-01-26T09:35:14.354Z,2.88
2023-01-26T09:37:41.367Z,3.15
2023-01-26T09:40:18.342Z,2.67
2023-01-26T09:43:09.847Z,3.08
2023-01-26T09:45:46.456Z,4.75
2023-01-26T09:48:36.278Z,3.50
2023-01-26T09:51:19.753Z,4.27
2023-01-26T09:54:01.719Z,4.22
2023-01-26T09:56:32.658Z,5.10
2023-01-26T09:59:11.846Z,5.60
2023-01-26T10:01:47.052Z,5.20
2023-01-26T10:04:24.841Z,7.13
2023-01-26T10:06:54.705Z,7.53
2023-01-26T10:09:28.195Z,4.78
2023-01-26T10:11:56.349Z,6.10
2023-01-26T10:14:34.735Z,6.57
2023-01-26T10:17:03.736Z,7.05
2023-01-26T10:19:38.231Z,5.60
2023-01-26T10:22:18.075Z,8.27
2023-01-26T10:24:49.281Z,8.07
2023-01-26T10:27:15.908Z,8.10
2023-01-26T10:29:42.761Z,5.68
2023-01-26T10:32:18.419Z,5.47
2023-01-26T10:34:51.351Z,4.80
2023-01-26T10:37:21.128Z,6.03
2023-01-26T10:40:02.410Z,5.05
2023-01-26T10:42:32.277Z,4.22
2023-01-26T10:45:02.217Z,5.25
2023-01-26T10:47:29.527Z,3.60
2023-01-26T10:50:23.935Z,4.57
2023-01-26T10:53:03.920Z,4.10
2023-01-26T10:55:36.309Z,4.38
2023-01-26T10:58:02.949Z,4.05
2023-01-26T11:00:32.945Z,3.63
2023-01-26T11:03:06.385Z,3.33
2023-01-26T11:05:33.507Z,3.42
2023-01-26T11:08:03.700Z,3.83
2023-01-26T11:10:30.267Z,3.90
2023-01-26T11:13:16.604Z,4.47
2023-01-26T11:16:04.832Z,5.47
2023-01-26T11:18:37.368Z,5.18
2023-01-26T11:21:16.917Z,3.65
2023-01-26T11:24:00.953Z,3.38
2023-01-26T11:26:30.835Z,3.88
2023-01-26T11:29:09.518Z,3.85
2023-01-26T11:32:15.424Z,4.03
2023-01-26T11:34:50.039Z,4.30
2023-01-26T11:37:39.627Z,3.72
2023-01-26T11:40:30.965Z,2.97
2023-01-26T11:43:15.292Z,3.13
2023-01-26T11:46:10.571Z,4.18
2023-01-26T11:48:50.507Z,5.32
2023-01-26T11:51:38.715Z,4.00
2023-01-26T11:54:50.460Z,3.97
2023-01-26T11:57:39.289Z,3.00
2023-01-26T12:00:28.982Z,2.88
2023-01-26T12:03:03.468Z,3.80
2023-01-26T12:05:36.730Z,3.08
2023-01-26T12:08:22.242Z,5.30
2023-01-26T12:10:56.678Z,6.28
2023-01-26T12:13:45.349Z,4.05
2023-01-26T12:16:20.410Z,3.45
2023-01-26T12:19:29.146Z,4.70
2023-01-26T12:22:04.193Z,5.03
2023-01-26T12:25:08.129Z,4.60
2023-01-26T12:28:00.168Z,3.67
2023-01-26T12:30:51.408Z,4.32
2023-01-26T12:33:18.441Z,4.25
2023-01-26T12:35:56.710Z,5.07
2023-01-26T12:38:50.716Z,3.28
2023-01-26T12:41:56.152Z,3.38
2023-01-26T12:44:42.319Z,4.43
2023-01-26T12:47:09.084Z,3.63
2023-01-26T12:49:46.783Z,4.20
2023-01-26T12:52:30.840Z,3.38
2023-01-26T12:55:13.252Z,4.38
2023-01-26T12:57:46.105Z,4.38
2023-01-26T13:00:24.577Z,4.22
2023-01-26T13:02:59.077Z,3.97
2023-01-26T13:05:29.989Z,3.78
2023-01-26T13:07:56.661Z,3.55
2023-01-26T13:10:43.075Z,3.05
2023-01-26T13:13:18.723Z,5.55
2023-01-26T13:15:45.397Z,4.40
2023-01-26T13:18:17.455Z,4.10
2023-01-26T13:20:48.646Z,4.32
2023-01-26T13:23:43.920Z,4.35
2023-01-26T13:26:17.063Z,4.30
2023-01-26T13:28:45.888Z,4.22
2023-01-26T13:31:13.403Z,3.47
2023-01-26T13:33:43.614Z,9.00
2023-01-26T13:36:18.238Z,4.75
2023-01-26T13:39:01.378Z,4.10
2023-01-26T13:41:27.971Z,9.23
2023-01-26T13:44:42.683Z,5.38
2023-01-26T13:47:15.475Z,5.82
2023-01-26T13:49:43.259Z,5.90
2023-01-26T13:52:20.746Z,4.05
2023-01-26T13:54:49.518Z,2.75
2023-01-26T13:57:27.714Z,3.47
2023-01-26T13:59:59.065Z,3.50
2023-01-26T14:02:26.984Z,3.50
2023-01-26T14:04:57.912Z,4.40
2023-01-26T14:07:32.663Z,4.90
2023-01-26T14:10:02.358Z,3.00
2023-01-26T14:12:48.798Z,4.15
2023-01-26T14:15:32.648Z,2.58
2023-01-26T14:18:01.971Z,3.33
2023-01-26T14:20:33.499Z,3.40
2023-01-26T14:23:18.560Z,4.93
2023-01-26T14:25:56.376Z,3.15
2023-01-26T14:28:35.275Z,3.53
2023-01-26T14:31:10.533Z,4.10
2023-01-26T14:33:37.481Z,3.97
2023-01-26T14:36:05.343Z,3.33
2023-01-26T14:38:43.955Z,2.80
2023-01-26T14:41:17.558Z,4.53
2023-01-26T14:43:44.198Z,3.05
2023-01-26T14:46:18.920Z,4.03
2023-01-26T14:48:54.297Z,3.17
2023-01-26T14:51:25.286Z,3.72
2023-01-26T14:53:55.536Z,4.43
2023-01-26T14:56:31.377Z,2.80
2023-01-26T14:58:58.101Z,3.95
2023-01-26T15:01:26.590Z,4.30
2023-01-26T15:04:00.190Z,4.13
2023-01-26T15:06:29.321Z,4.05
2023-01-26T15:09:00.534Z,4.50
2023-01-26T15:11:51.312Z,4.15
2023-01-26T15:15:10.691Z,4.88
2023-01-26T15:17:42.480Z,4.65
2023-01-26T15:20:14.777Z,2.33
2023-01-26T15:22:48.441Z,2.10
2023-01-26T15:25:19.741Z,3.58
2023-01-26T15:27:58.301Z,2.85
2023-01-26T15:30:31.496Z,5.68
2023-01-26T15:32:58.169Z,2.25
2023-01-26T15:35:26.172Z,3.97
2023-01-26T15:38:01.744Z,3.03
2023-01-26T15:40:28.750Z,3.90
2023-01-26T15:43:17.747Z,3.15
2023-01-26T15:45:55.611Z,2.22
2023-01-26T15:48:24.280Z,3.15
2023-01-26T15:50:51.094Z,2.72
2023-01-26T15:53:20.572Z,3.78
2023-01-26T15:55:58.832Z,3.30
2023-01-26T15:58:26.131Z,3.03
2023-01-26T16:00:53.516Z,2.15
2023-01-26T16:03:22.330Z,4.00
2023-01-26T16:05:49.794Z,4.57
2023-01-26T16:08:18.241Z,3.17
2023-01-26T16:10:45.784Z,3.25
2023-01-26T16:13:14.720Z,4.30
2023-01-26T16:15:51.501Z,3.53
2023-01-26T16:18:18.609Z,3.03
2023-01-26T16:20:48.093Z,3.38
2023-01-26T16:23:26.791Z,4.65
2023-01-26T16:25:53.854Z,2.70
2023-01-26T16:28:21.332Z,2.58
2023-01-26T16:30:50.868Z,3.92
2023-01-26T16:33:21.226Z,4.80
2023-01-26T16:35:48.184Z,2.97
2023-01-26T16:38:14.717Z,4.95
2023-01-26T16:40:43.130Z,2.78
2023-01-26T16:43:23.306Z,2.63
2023-01-26T16:45:50.284Z,2.22
2023-01-26T16:48:17.095Z,3.03
2023-01-26T16:50:44.712Z,3.15
2023-01-26T16:53:28.945Z,2.45
2023-01-26T16:55:55.506Z,4.57
2023-01-26T16:58:26.196Z,2.60
2023-01-26T17:00:54.176Z,3.25
2023-01-26T17:03:20.865Z,2.67
2023-01-26T17:05:47.456Z,2.45
2023-01-26T17:08:14.014Z,3.47
2023-01-26T17:10:52.046Z,2.40
2023-01-26T17:13:26.344Z,2.60
2023-01-26T17:15:52.981Z,2.95
2023-01-26T17:18:19.484Z,4.18
2023-01-26T17:20:46.174Z,2.10
2023-01-26T17:23:12.824Z,3.28
2023-01-26T17:25:39.380Z,2.15
2023-01-26T17:28:06.020Z,2.17
2023-01-26T17:30:33.161Z,3.35
2023-01-26T17:32:59.832Z,2.65
2023-01-26T17:35:26.317Z,3.13
2023-01-26T17:37:52.851Z,3.22
2023-01-26T17:40:19.545Z,2.83
2023-01-26T17:42:46.090Z,1.95
2023-01-26T17:45:13.210Z,2.75
2023-01-26T17:47:39.867Z,3.08
2023-01-26T17:50:06.730Z,5.00
2023-01-26T17:52:35.393Z,2.95
2023-01-26T17:55:05.208Z,1.77
2023-01-26T17:57:32.228Z,2.97
2023-01-26T17:59:58.824Z,2.80
2023-01-26T18:02:25.540Z,3.28
2023-01-26T18:04:52.161Z,2.20
2023-01-26T18:07:18.657Z,1.88
2023-01-26T18:09:45.432Z,1.80
2023-01-26T18:12:12.003Z,3.30
2023-01-26T18:14:38.515Z,1.90
2023-01-26T18:21:40.112Z,3.05
2023-01-26T18:24:07.138Z,2.42
2023-01-26T18:26:36.141Z,2.28
2023-01-26T18:29:05.572Z,2.08
2023-01-26T18:31:37.987Z,2.40
2023-01-26T18:34:04.817Z,1.90
2023-01-26T18:36:31.324Z,2.50
2023-01-26T18:39:06.276Z,2.60
2023-01-26T18:41:33.442Z,2.83
2023-01-26T18:44:01.132Z,2.60
2023-01-26T18:46:28.613Z,3.85
2023-01-26T18:49:00.378Z,2.42
2023-01-26T18:51:33.106Z,1.88
2023-01-26T18:54:00.119Z,1.88
2023-01-26T18:56:26.994Z,2.25
2023-01-26T18:58:54.599Z,2.22
2023-01-26T19:01:22.320Z,2.33
2023-01-26T19:03:54.247Z,1.42
2023-01-26T19:06:22.433Z,2.25
2023-01-26T19:09:01.261Z,2.50
2023-01-26T19:11:31.263Z,1.92
2023-01-26T19:13:58.683Z,1.85
2023-01-26T19:16:25.986Z,1.52
2023-01-26T19:18:54.218Z,2.40
2023-01-26T19:21:24.175Z,2.58
2023-01-26T19:23:52.364Z,1.58
2023-01-26T19:26:21.648Z,1.75
2023-01-26T19:28:50.984Z,3.10
2023-01-26T19:31:21.689Z,1.73
2023-01-26T19:33:52.975Z,1.70
2023-01-26T19:36:20.089Z,1.98
2023-01-26T19:38:46.701Z,2.83
2023-01-26T19:41:13.756Z,2.60
2023-01-26T19:43:40.617Z,2.53
2023-01-26T19:46:11.775Z,1.23
2023-01-26T19:48:39.251Z,1.50
2023-01-26T19:51:08.218Z,1.98
2023-01-26T19:53:37.284Z,2.38
2023-01-26T19:56:09.113Z,2.30
2023-01-26T19:58:36.389Z,2.25
2023-01-26T20:01:08.307Z,1.52
2023-01-26T20:03:35.550Z,2.63
2023-01-26T20:06:03.506Z,1.58
2023-01-26T20:08:30.488Z,1.90
2023-01-26T20:11:07.891Z,1.70
2023-01-26T20:13:35.095Z,1.33
2023-01-26T20:16:03.942Z,2.38
2023-01-26T20:18:30.651Z,1.27
2023-01-26T20:21:00.367Z,1.77
2023-01-26T20:23:28.045Z,3.22
2023-01-26T20:26:21.185Z,1.35
2023-01-26T20:28:47.777Z,1.95
2023-01-26T20:31:18.865Z,1.00
2023-01-26T20:33:48.937Z,1.85
2023-01-26T20:36:18.907Z,1.98
2023-01-26T20:38:47.067Z,1.63
2023-01-26T20:41:23.243Z,1.90
2023-01-26T20:43:59.755Z,2.35
2023-01-26T20:46:29.866Z,1.92
2023-01-26T20:48:57.642Z,1.65
2023-01-26T20:51:29.172Z,1.65
2023-01-26T20:53:56.511Z,1.80
2023-01-26T20:56:23.484Z,1.50
2023-01-26T20:58:52.796Z,1.55
2023-01-26T21:01:20.316Z,1.90
2023-01-26T21:03:47.027Z,2.28
2023-01-26T21:06:16.008Z,1.20
2023-01-26T21:08:42.505Z,2.00
2023-01-26T21:11:12.972Z,1.73
2023-01-26T21:16:13.142Z,1.63
2023-01-26T21:18:39.848Z,4.03
2023-01-26T21:21:08.414Z,3.67
2023-01-26T21:23:35.323Z,3.15
2023-01-26T21:26:05.045Z,3.72
2023-01-26T21:28:32.168Z,3.05
2023-01-26T21:31:10.139Z,12.00
2023-01-26T21:33:43.016Z,1.08
2023-01-26T21:36:12.163Z,4.55
2023-01-26T21:38:41.147Z,2.33
2023-01-26T21:41:31.891Z,2.58
2023-01-26T21:44:04.051Z,2.83
2023-01-26T21:46:30.856Z,3.30
2023-01-26T21:48:57.876Z,2.13
2023-01-26T21:51:43.890Z,2.08
2023-01-26T21:54:11.302Z,2.72
2023-01-26T21:56:38.146Z,1.48
2023-01-26T21:59:08.248Z,3.38
2023-01-26T22:01:40.428Z,2.47
2023-01-26T22:04:10.180Z,2.78
2023-01-26T22:06:37.566Z,2.28
2023-01-26T22:09:06.245Z,1.63
2023-01-26T22:11:33.091Z,2.55
2023-01-26T22:14:00.148Z,2.65
2023-01-26T22:16:27.544Z,1.67
2023-01-26T22:18:54.143Z,3.05
2023-01-26T22:21:20.988Z,2.03
2023-01-26T22:23:47.547Z,1.98
2023-01-26T22:26:17.620Z,2.80
2023-01-26T22:28:44.455Z,1.70
2023-01-26T22:31:11.387Z,1.98
2023-01-26T22:33:38.647Z,1.85
2023-01-26T22:36:11.228Z,1.63
2023-01-26T22:38:38.567Z,3.10
2023-01-26T22:41:06.659Z,2.00
2023-01-26T22:43:34.007Z,1.85
2023-01-26T22:46:06.833Z,1.55
2023-01-26T22:48:33.479Z,2.25
2023-01-26T22:51:18.857Z,3.70
2023-01-26T22:53:45.987Z,3.72
2023-01-26T22:56:12.798Z,3.53
2023-01-26T22:58:56.567Z,1.92
2023-01-26T23:01:26.681Z,2.90
2023-01-26T23:03:54.958Z,2.10
2023-01-26T23:06:21.996Z,2.30
2023-01-26T23:08:49.505Z,2.95
2023-01-26T23:11:22.068Z,2.80
2023-01-26T23:13:50.545Z,2.00
2023-01-26T23:16:17.458Z,2.08
2023-01-26T23:18:44.468Z,2.85
2023-01-26T23:21:11.563Z,2.00
2023-01-26T23:23:39.867Z,3.03
2023-01-26T23:26:07.367Z,1.00
2023-01-26T23:28:37.083Z,3.17
2023-01-26T23:31:04.776Z,2.25
2023-01-26T23:33:32.929Z,2.10
2023-01-26T23:36:00.032Z,2.05
2023-01-26T23:38:28.462Z,2.50
2023-01-26T23:40:55.301Z,3.05
2023-01-26T23:43:22.652Z,2.15
2023-01-26T23:45:50.765Z,2.83
2023-01-26T23:48:18.232Z,4.80
2023-01-26T23:50:44.980Z,2.58
2023-01-26T23:53:11.890Z,1.73
2023-01-26T23:55:44.190Z,2.10
2023-01-26T23:58:12.087Z,3.22
